createdAt,value
2023-04-27T00:00:12.041Z,95576
2023-04-27T00:01:20.778Z,95576
2023-04-27T00:02:30.572Z,95574
2023-04-27T00:03:40.308Z,95575
2023-04-27T00:04:49.990Z,95573
2023-04-27T00:05:58.758Z,95572
2023-04-27T00:07:08.398Z,95575
2023-04-27T00:08:17.132Z,95574
2023-04-27T00:09:26.917Z,95576
2023-04-27T00:10:36.580Z,95574
2023-04-27T00:11:46.367Z,95568
2023-04-27T00:12:56.083Z,95568
2023-04-27T00:14:04.770Z,95570
2023-04-27T00:15:14.440Z,95571
2023-04-27T00:16:23.117Z,95564
2023-04-27T00:17:31.783Z,95565
2023-04-27T00:18:40.444Z,95569
2023-04-27T00:19:50.141Z,95570
2023-04-27T00:20:58.869Z,95570
2023-04-27T00:22:07.573Z,95568
2023-04-27T00:23:16.294Z,95571
2023-04-27T00:24:25.952Z,95566
2023-04-27T00:25:35.641Z,95569
2023-04-27T00:26:44.351Z,95570
2023-04-27T00:27:54.006Z,95571
2023-04-27T00:29:03.725Z,95566
2023-04-27T00:30:12.428Z,95564
2023-04-27T00:31:22.157Z,95564
2023-04-27T00:32:32.036Z,95564
2023-04-27T00:33:40.710Z,95562
2023-04-27T00:34:50.369Z,95562
2023-04-27T00:35:59.064Z,95559
2023-04-27T00:37:07.812Z,95562
2023-04-27T00:38:16.533Z,95559
2023-04-27T00:39:26.239Z,95560
2023-04-27T00:40:35.927Z,95560
2023-04-27T00:41:43.568Z,95562
2023-04-27T00:42:52.350Z,95560
2023-04-27T00:44:02.050Z,95555
2023-04-27T00:45:11.750Z,95558
2023-04-27T00:46:21.534Z,95554
2023-04-27T00:47:31.193Z,95558
2023-04-27T00:48:38.837Z,95554
2023-04-27T00:49:47.489Z,95555
2023-04-27T00:50:57.274Z,95557
2023-04-27T00:52:06.027Z,95554
2023-04-27T00:53:14.713Z,95551
2023-04-27T00:54:23.395Z,95557
2023-04-27T00:55:32.059Z,95559
2023-04-27T00:56:41.764Z,95558
2023-04-27T00:57:50.450Z,95558
2023-04-27T00:59:00.117Z,95556
2023-04-27T01:00:09.794Z,95552
2023-04-27T01:01:18.458Z,95556
2023-04-27T01:02:27.216Z,95559
2023-04-27T01:03:37.008Z,95556
2023-04-27T01:04:46.539Z,95558
2023-04-27T01:05:55.254Z,95558
2023-04-27T01:07:03.995Z,95555
2023-04-27T01:08:13.842Z,95558
2023-04-27T01:09:23.717Z,95557
2023-04-27T01:10:40.466Z,95557
2023-04-27T01:11:49.149Z,95558
2023-04-27T01:12:58.896Z,95555
2023-04-27T01:14:08.618Z,95563
2023-04-27T01:15:17.363Z,95558
2023-04-27T01:16:27.046Z,95562
2023-04-27T01:17:34.707Z,95561
2023-04-27T01:18:44.401Z,95560
2023-04-27T01:19:53.095Z,95559
2023-04-27T01:21:01.788Z,95559
2023-04-27T01:22:11.434Z,95562
2023-04-27T01:23:19.162Z,95560
2023-04-27T01:24:27.799Z,95559
2023-04-27T01:25:37.477Z,95561
2023-04-27T01:26:45.151Z,95562
2023-04-27T01:27:53.850Z,95563
2023-04-27T01:29:03.508Z,95560
2023-04-27T01:30:13.203Z,95563
2023-04-27T01:31:22.869Z,95562
2023-04-27T01:32:32.573Z,95559
2023-04-27T01:33:41.255Z,95559
2023-04-27T01:34:50.913Z,95556
2023-04-27T01:35:59.610Z,95559
2023-04-27T01:37:08.307Z,95560
2023-04-27T01:38:17.011Z,95560
2023-04-27T01:39:26.726Z,95561
2023-04-27T01:40:36.366Z,95558
2023-04-27T01:41:45.026Z,95556
2023-04-27T01:42:54.746Z,95557
2023-04-27T01:44:04.402Z,95557
2023-04-27T01:45:12.058Z,95556
2023-04-27T01:46:21.796Z,95555
2023-04-27T01:47:30.446Z,95556
2023-04-27T01:48:39.083Z,95559
2023-04-27T01:49:48.765Z,95560
2023-04-27T01:50:56.410Z,95559
2023-04-27T01:52:05.058Z,95565
2023-04-27T01:53:14.737Z,95564
2023-04-27T01:54:25.164Z,95566
2023-04-27T01:55:33.087Z,95565
2023-04-27T01:56:42.790Z,95564
2023-04-27T01:57:52.364Z,95575
2023-04-27T01:59:02.094Z,95567
2023-04-27T02:00:11.772Z,95570
2023-04-27T02:01:20.424Z,95571
2023-04-27T02:02:30.171Z,95568
2023-04-27T02:03:37.866Z,95567
2023-04-27T02:04:46.480Z,95567
2023-04-27T02:05:56.110Z,95575
2023-04-27T02:07:04.843Z,95575
2023-04-27T02:08:14.516Z,95573
2023-04-27T02:09:24.205Z,95572
2023-04-27T02:10:33.840Z,95574
2023-04-27T02:11:43.534Z,95577
2023-04-27T02:12:52.190Z,95578
2023-04-27T02:14:01.001Z,95582
2023-04-27T02:15:10.627Z,95575
2023-04-27T02:16:19.323Z,95579
2023-04-27T02:17:27.978Z,95575
2023-04-27T02:18:36.627Z,95577
2023-04-27T02:19:45.286Z,95573
2023-04-27T02:20:54.931Z,95574
2023-04-27T02:22:02.589Z,95577
2023-04-27T02:23:12.261Z,95579
2023-04-27T02:24:21.965Z,95579
2023-04-27T02:25:31.763Z,95584
2023-04-27T02:26:41.471Z,95584
2023-04-27T02:27:49.151Z,95584
2023-04-27T02:28:58.812Z,95588
2023-04-27T02:30:08.494Z,95590
2023-04-27T02:31:17.177Z,95588
2023-04-27T02:32:26.808Z,95594
2023-04-27T02:33:35.548Z,95589
2023-04-27T02:34:44.186Z,95590
2023-04-27T02:35:53.848Z,95590
2023-04-27T02:37:02.500Z,95589
2023-04-27T02:38:11.143Z,95587
2023-04-27T02:39:20.814Z,95589
2023-04-27T02:40:28.477Z,95588
2023-04-27T02:41:37.122Z,95588
2023-04-27T02:42:45.784Z,95586
2023-04-27T02:43:55.476Z,95585
2023-04-27T02:45:05.103Z,95589
2023-04-27T02:46:14.843Z,95586
2023-04-27T02:47:22.422Z,95587
2023-04-27T02:48:31.086Z,95589
2023-04-27T02:49:39.822Z,95589
2023-04-27T02:50:48.474Z,95589
2023-04-27T02:51:58.120Z,95593
2023-04-27T02:53:06.773Z,95591
2023-04-27T02:54:16.448Z,95588
2023-04-27T02:55:26.097Z,95594
2023-04-27T02:56:33.793Z,95592
2023-04-27T02:57:43.468Z,95594
2023-04-27T02:58:52.281Z,95592
2023-04-27T03:00:02.839Z,95594
2023-04-27T03:01:11.689Z,95591
2023-04-27T03:02:20.347Z,95592
2023-04-27T03:03:30.048Z,95591
2023-04-27T03:04:39.730Z,95592
2023-04-27T03:05:47.398Z,95594
2023-04-27T03:06:56.070Z,95591
2023-04-27T03:08:05.702Z,95595
2023-04-27T03:09:15.714Z,95597
2023-04-27T03:10:25.036Z,95592
2023-04-27T03:11:34.786Z,95589
2023-04-27T03:12:43.372Z,95585
2023-04-27T03:13:53.065Z,95583
2023-04-27T03:15:01.737Z,95588
2023-04-27T03:16:10.464Z,95585
2023-04-27T03:17:20.131Z,95595
2023-04-27T03:18:28.788Z,95592
2023-04-27T03:19:38.538Z,95593
2023-04-27T03:20:46.187Z,95592
2023-04-27T03:21:54.868Z,95585
2023-04-27T03:23:04.544Z,95589
2023-04-27T03:24:12.277Z,95588
2023-04-27T03:25:20.957Z,95596
2023-04-27T03:26:29.614Z,95595
2023-04-27T03:27:39.288Z,95595
2023-04-27T03:28:48.937Z,95599
2023-04-27T03:29:56.609Z,95595
2023-04-27T03:31:05.257Z,95603
2023-04-27T03:32:14.986Z,95606
2023-04-27T03:33:23.616Z,95600
2023-04-27T03:34:32.325Z,95597
2023-04-27T03:35:41.973Z,95599
2023-04-27T03:36:51.612Z,95603
2023-04-27T03:38:01.263Z,95603
2023-04-27T03:39:08.969Z,95601
2023-04-27T03:40:17.729Z,95607
2023-04-27T03:41:27.385Z,95610
2023-04-27T03:42:35.105Z,95608
2023-04-27T03:43:44.846Z,95604
2023-04-27T03:44:54.645Z,95610
2023-04-27T03:46:04.412Z,95611
2023-04-27T03:47:14.001Z,95610
2023-04-27T03:48:21.731Z,95608
2023-04-27T03:49:31.366Z,95607
2023-04-27T03:50:41.045Z,95605
2023-04-27T03:51:48.725Z,95613
2023-04-27T03:52:57.384Z,95604
2023-04-27T03:54:06.035Z,95606
2023-04-27T03:55:14.722Z,95600
2023-04-27T03:56:24.393Z,95603
2023-04-27T03:57:34.172Z,95606
2023-04-27T03:58:43.819Z,95603
2023-04-27T03:59:53.539Z,95605
2023-04-27T04:01:03.200Z,95607
2023-04-27T04:02:11.927Z,95608
2023-04-27T04:03:20.619Z,95604
2023-04-27T04:04:30.419Z,95610
2023-04-27T04:05:39.923Z,95607
2023-04-27T04:06:49.594Z,95613
2023-04-27T04:07:59.372Z,95620
2023-04-27T04:09:09.246Z,95619
2023-04-27T04:10:17.903Z,95625
2023-04-27T04:11:26.571Z,95623
2023-04-27T04:12:35.267Z,95627
2023-04-27T04:13:43.898Z,95629
2023-04-27T04:14:52.562Z,95628
2023-04-27T04:16:00.285Z,95636
2023-04-27T04:17:08.936Z,95634
2023-04-27T04:18:18.598Z,95641
2023-04-27T04:19:27.294Z,95640
2023-04-27T04:20:37.083Z,95637
2023-04-27T04:21:46.728Z,95638
2023-04-27T04:22:55.389Z,95638
2023-04-27T04:24:05.230Z,95638
2023-04-27T04:25:13.906Z,95642
2023-04-27T04:26:22.594Z,95645
2023-04-27T04:27:31.245Z,95644
2023-04-27T04:28:39.896Z,95648
2023-04-27T04:29:48.573Z,95654
2023-04-27T04:30:57.247Z,95651
2023-04-27T04:32:05.876Z,95645
2023-04-27T04:33:15.574Z,95649
2023-04-27T04:34:23.274Z,95653
2023-04-27T04:35:31.912Z,95648
2023-04-27T04:36:41.585Z,95649
2023-04-27T04:37:50.234Z,95653
2023-04-27T04:38:58.895Z,95654
2023-04-27T04:40:08.575Z,95658
2023-04-27T04:41:17.265Z,95654
2023-04-27T04:42:26.948Z,95659
2023-04-27T04:43:34.619Z,95664
2023-04-27T04:44:43.256Z,95668
2023-04-27T04:45:51.916Z,95665
2023-04-27T04:47:00.616Z,95669
2023-04-27T04:48:10.251Z,95664
2023-04-27T04:49:18.907Z,95664
2023-04-27T04:50:27.568Z,95664
2023-04-27T04:51:37.222Z,95663
2023-04-27T04:52:47.098Z,95662
2023-04-27T04:53:56.607Z,95661
2023-04-27T04:55:05.306Z,95657
2023-04-27T04:56:14.964Z,95657
2023-04-27T04:57:24.632Z,95658
2023-04-27T04:58:35.294Z,95661
2023-04-27T04:59:42.998Z,95665
2023-04-27T05:00:51.638Z,95664
2023-04-27T05:02:01.547Z,95667
2023-04-27T05:03:10.095Z,95663
2023-04-27T05:04:19.836Z,95664
2023-04-27T05:05:28.416Z,95663
2023-04-27T05:06:37.104Z,95662
2023-04-27T05:07:46.789Z,95667
2023-04-27T05:08:56.499Z,95666
2023-04-27T05:10:05.133Z,95667
2023-04-27T05:11:14.828Z,95667
2023-04-27T05:12:23.487Z,95667
2023-04-27T05:13:33.163Z,95667
2023-04-27T05:14:41.856Z,95668
2023-04-27T05:15:50.580Z,95673
2023-04-27T05:16:59.296Z,95675
2023-04-27T05:18:06.983Z,95678
2023-04-27T05:19:15.773Z,95672
2023-04-27T05:20:25.464Z,95678
2023-04-27T05:21:34.144Z,95673
2023-04-27T05:22:42.919Z,95670
2023-04-27T05:23:52.625Z,95671
2023-04-27T05:25:02.433Z,95671
2023-04-27T05:26:12.099Z,95677
2023-04-27T05:27:20.789Z,95676
2023-04-27T05:28:29.467Z,95680
2023-04-27T05:29:39.170Z,95677
2023-04-27T05:30:47.960Z,95674
2023-04-27T05:31:56.675Z,95677
2023-04-27T05:33:06.405Z,95674
2023-04-27T05:34:14.978Z,95677
2023-04-27T05:35:24.704Z,95675
2023-04-27T05:36:33.368Z,95670
2023-04-27T05:37:43.023Z,95668
2023-04-27T05:38:52.706Z,95667
2023-04-27T05:40:00.409Z,95666
2023-04-27T05:41:10.151Z,95667
2023-04-27T05:42:19.840Z,95674
2023-04-27T05:43:29.490Z,95677
2023-04-27T05:44:39.207Z,95680
2023-04-27T05:45:47.955Z,95678
2023-04-27T05:46:56.602Z,95681
2023-04-27T05:48:06.286Z,95685
2023-04-27T05:49:14.120Z,95689
2023-04-27T05:50:23.714Z,95688
2023-04-27T05:51:33.352Z,95692
2023-04-27T05:52:42.041Z,95696
2023-04-27T05:53:51.711Z,95699
2023-04-27T05:54:59.356Z,95699
2023-04-27T05:56:08.130Z,95703
2023-04-27T05:57:17.907Z,95700
2023-04-27T05:58:27.531Z,95698
2023-04-27T05:59:37.324Z,95698
2023-04-27T06:00:47.042Z,95695
2023-04-27T06:01:55.729Z,95695
2023-04-27T06:03:05.579Z,95692
2023-04-27T06:04:15.409Z,95691
2023-04-27T06:05:24.943Z,95688
2023-04-27T06:06:34.612Z,95690
2023-04-27T06:07:42.287Z,95690
2023-04-27T06:08:51.978Z,95690
2023-04-27T06:10:00.686Z,95694
2023-04-27T06:11:10.412Z,95697
2023-04-27T06:12:20.154Z,95693
2023-04-27T06:13:28.858Z,95690
2023-04-27T06:14:38.557Z,95693
2023-04-27T06:15:48.274Z,95688
2023-04-27T06:16:56.921Z,95687
2023-04-27T06:18:05.740Z,95692
2023-04-27T06:19:14.676Z,95694
2023-04-27T06:20:24.061Z,95693
2023-04-27T06:21:33.767Z,95691
2023-04-27T06:22:42.432Z,95691
2023-04-27T06:23:51.214Z,95694
2023-04-27T06:25:00.905Z,95697
2023-04-27T06:26:09.614Z,95698
2023-04-27T06:27:19.311Z,95702
2023-04-27T06:28:27.978Z,95702
2023-04-27T06:29:36.691Z,95707
2023-04-27T06:30:46.501Z,95699
2023-04-27T06:31:55.254Z,95703
2023-04-27T06:33:04.019Z,95704
2023-04-27T06:34:13.666Z,95707
2023-04-27T06:35:22.347Z,95705
2023-04-27T06:36:32.099Z,95708
2023-04-27T06:37:41.798Z,95709
2023-04-27T06:38:52.464Z,95715
2023-04-27T06:40:02.196Z,95711
2023-04-27T06:41:09.921Z,95714
2023-04-27T06:42:17.553Z,95707
2023-04-27T06:43:26.239Z,95711
2023-04-27T06:44:35.917Z,95708
2023-04-27T06:45:44.660Z,95709
2023-04-27T06:46:54.324Z,95713
2023-04-27T06:48:02.044Z,95708
2023-04-27T06:49:11.784Z,95706
2023-04-27T06:50:20.360Z,95712
2023-04-27T06:51:29.124Z,95710
2023-04-27T06:52:37.853Z,95712
2023-04-27T06:53:46.589Z,95712
2023-04-27T06:54:55.205Z,95713
2023-04-27T06:56:04.912Z,95714
2023-04-27T06:57:14.589Z,95713
2023-04-27T06:58:24.317Z,95707
2023-04-27T06:59:33.979Z,95713
2023-04-27T07:00:43.658Z,95706
2023-04-27T07:01:52.430Z,95705
2023-04-27T07:03:02.120Z,95711
2023-04-27T07:04:10.770Z,95706
2023-04-27T07:05:20.462Z,95710
2023-04-27T07:06:28.133Z,95708
2023-04-27T07:07:36.897Z,95711
2023-04-27T07:08:46.502Z,95710
2023-04-27T07:09:56.194Z,95713
2023-04-27T07:11:04.886Z,95713
2023-04-27T07:12:13.581Z,95712
2023-04-27T07:13:23.260Z,95715
2023-04-27T07:14:32.975Z,95714
2023-04-27T07:15:41.646Z,95709
2023-04-27T07:16:50.325Z,95716
2023-04-27T07:18:00.093Z,95710
2023-04-27T07:19:09.723Z,95713
2023-04-27T07:20:18.368Z,95709
2023-04-27T07:21:28.103Z,95712
2023-04-27T07:22:37.760Z,95716
2023-04-27T07:23:48.415Z,95715
2023-04-27T07:24:58.094Z,95719
2023-04-27T07:26:07.838Z,95716
2023-04-27T07:27:17.534Z,95717
2023-04-27T07:28:25.178Z,95720
2023-04-27T07:29:34.837Z,95718
2023-04-27T07:30:43.502Z,95717
2023-04-27T07:31:52.415Z,95713
2023-04-27T07:33:02.045Z,95716
2023-04-27T07:34:11.660Z,95714
2023-04-27T07:35:20.337Z,95718
2023-04-27T07:36:30.010Z,95713
2023-04-27T07:37:38.691Z,95717
2023-04-27T07:38:48.395Z,95712
2023-04-27T07:39:58.045Z,95716
2023-04-27T07:41:06.725Z,95714
2023-04-27T07:42:16.467Z,95719
2023-04-27T07:43:24.122Z,95715
2023-04-27T07:44:33.817Z,95717
2023-04-27T07:45:43.484Z,95721
2023-04-27T07:46:52.206Z,95718
2023-04-27T07:48:00.893Z,95715
2023-04-27T07:49:10.603Z,95712
2023-04-27T07:50:20.219Z,95710
2023-04-27T07:51:29.884Z,95711
2023-04-27T07:52:38.568Z,95715
2023-04-27T07:53:48.214Z,95711
2023-04-27T07:54:57.944Z,95714
2023-04-27T07:56:07.611Z,95715
2023-04-27T07:57:16.309Z,95719
2023-04-27T07:58:25.956Z,95713
2023-04-27T07:59:35.647Z,95718
2023-04-27T08:00:45.328Z,95717
2023-04-27T08:01:57.246Z,95719
2023-04-27T08:03:03.816Z,95724
2023-04-27T08:04:13.630Z,95723
2023-04-27T08:05:23.155Z,95727
2023-04-27T08:06:33.270Z,95725
2023-04-27T08:07:44.714Z,95728
2023-04-27T08:08:50.953Z,95727
2023-04-27T08:10:00.604Z,95729
2023-04-27T08:11:09.256Z,95728
2023-04-27T08:12:18.007Z,95726
2023-04-27T08:13:27.710Z,95730
2023-04-27T08:14:36.412Z,95726
2023-04-27T08:15:44.077Z,95725
2023-04-27T08:16:52.830Z,95726
2023-04-27T08:18:02.451Z,95724
2023-04-27T08:19:12.274Z,95732
2023-04-27T08:20:21.816Z,95726
2023-04-27T08:21:31.473Z,95730
2023-04-27T08:22:41.364Z,95732
2023-04-27T08:23:50.026Z,95731
2023-04-27T08:24:59.662Z,95734
2023-04-27T08:26:08.320Z,95730
2023-04-27T08:27:18.083Z,95730
2023-04-27T08:28:27.775Z,95733
2023-04-27T08:29:36.491Z,95734
2023-04-27T08:30:45.134Z,95733
2023-04-27T08:31:56.590Z,95734
2023-04-27T08:33:02.514Z,95733
2023-04-27T08:34:12.216Z,95735
2023-04-27T08:35:20.878Z,95734
2023-04-27T08:36:30.557Z,95736
2023-04-27T08:37:40.217Z,95734
2023-04-27T08:38:49.901Z,95738
2023-04-27T08:39:57.545Z,95733
2023-04-27T08:41:18.252Z,95735
2023-04-27T08:42:17.919Z,95739
2023-04-27T08:43:26.627Z,95735
2023-04-27T08:44:36.290Z,95736
2023-04-27T08:45:43.934Z,95739
2023-04-27T08:46:52.717Z,95738
2023-04-27T08:48:02.490Z,95740
2023-04-27T08:49:11.116Z,95739
2023-04-27T08:50:19.621Z,95733
2023-04-27T08:51:28.273Z,95741
2023-04-27T08:52:37.962Z,95743
2023-04-27T08:53:48.587Z,95736
2023-04-27T08:54:57.262Z,95734
2023-04-27T08:56:05.909Z,95743
2023-04-27T08:57:15.599Z,95742
2023-04-27T08:58:23.247Z,95737
2023-04-27T08:59:32.951Z,95741
2023-04-27T09:00:41.609Z,95734
2023-04-27T09:01:50.284Z,95733
2023-04-27T09:02:59.994Z,95735
2023-04-27T09:04:08.728Z,95737
2023-04-27T09:05:17.295Z,95738
2023-04-27T09:06:27.012Z,95736
2023-04-27T09:07:33.680Z,95735
2023-04-27T09:08:42.368Z,95732
2023-04-27T09:09:52.002Z,95725
2023-04-27T09:11:00.652Z,95730
2023-04-27T09:12:10.321Z,95729
2023-04-27T09:13:20.097Z,95723
2023-04-27T09:14:28.753Z,95727
2023-04-27T09:15:38.405Z,95723
2023-04-27T09:16:46.122Z,95722
2023-04-27T09:17:54.833Z,95723
2023-04-27T09:19:02.446Z,95721
2023-04-27T09:20:12.113Z,95720
2023-04-27T09:21:21.762Z,95720
2023-04-27T09:22:30.446Z,95722
2023-04-27T09:23:39.114Z,95724
2023-04-27T09:24:48.835Z,95725
2023-04-27T09:25:58.461Z,95723
2023-04-27T09:27:08.116Z,95725
2023-04-27T09:28:17.814Z,95723
2023-04-27T09:29:26.459Z,95722
2023-04-27T09:30:36.143Z,95728
2023-04-27T09:31:43.925Z,95721
2023-04-27T09:32:52.668Z,95721
2023-04-27T09:34:02.275Z,95719
2023-04-27T09:35:10.968Z,95717
2023-04-27T09:36:20.627Z,95716
2023-04-27T09:37:29.293Z,95712
2023-04-27T09:38:38.025Z,95710
2023-04-27T09:39:47.761Z,95712
2023-04-27T09:40:56.457Z,95710
2023-04-27T09:42:05.117Z,95707
2023-04-27T09:43:14.809Z,95710
2023-04-27T09:44:24.569Z,95708
2023-04-27T09:45:33.226Z,95708
2023-04-27T09:46:41.883Z,95702
2023-04-27T09:47:51.710Z,95704
2023-04-27T09:49:01.342Z,95705
2023-04-27T09:50:10.031Z,95702
2023-04-27T09:51:19.689Z,95700
2023-04-27T09:52:29.333Z,95701
2023-04-27T09:53:39.120Z,95701
2023-04-27T09:54:47.911Z,95701
2023-04-27T09:55:57.614Z,95703
2023-04-27T09:57:07.400Z,95701
2023-04-27T09:58:18.097Z,95703
2023-04-27T09:59:25.766Z,95705
2023-04-27T10:00:35.655Z,95703
2023-04-27T10:01:45.281Z,95704
2023-04-27T10:02:54.315Z,95703
2023-04-27T10:04:05.135Z,95698
2023-04-27T10:05:13.757Z,95700
2023-04-27T10:06:22.444Z,95695
2023-04-27T10:07:33.117Z,95696
2023-04-27T10:08:40.863Z,95689
2023-04-27T10:09:50.550Z,95689
2023-04-27T10:11:00.249Z,95693
2023-04-27T10:12:09.939Z,95693
2023-04-27T10:13:18.642Z,95691
2023-04-27T10:14:27.311Z,95684
2023-04-27T10:15:35.972Z,95687
2023-04-27T10:16:45.713Z,95681
2023-04-27T10:17:54.369Z,95685
2023-04-27T10:19:02.841Z,95687
2023-04-27T10:20:12.512Z,95677
2023-04-27T10:21:21.240Z,95679
2023-04-27T10:22:30.927Z,95676
2023-04-27T10:23:40.622Z,95680
2023-04-27T10:24:49.283Z,95675
2023-04-27T10:25:59.041Z,95675
2023-04-27T10:27:07.684Z,95680
2023-04-27T10:28:17.430Z,95672
2023-04-27T10:29:27.089Z,95676
2023-04-27T10:30:34.859Z,95677
2023-04-27T10:31:42.477Z,95680
2023-04-27T10:32:52.369Z,95681
2023-04-27T10:34:01.017Z,95680
2023-04-27T10:35:10.694Z,95669
2023-04-27T10:36:19.389Z,95674
2023-04-27T10:37:28.101Z,95674
2023-04-27T10:38:35.799Z,95672
2023-04-27T10:39:48.947Z,95673
2023-04-27T10:40:54.243Z,95673
2023-04-27T10:42:04.034Z,95677
2023-04-27T10:43:12.776Z,95679
2023-04-27T10:44:22.614Z,95681
2023-04-27T10:45:32.295Z,95678
2023-04-27T10:46:40.106Z,95679
2023-04-27T10:47:49.832Z,95671
2023-04-27T10:48:58.481Z,95670
2023-04-27T10:50:08.165Z,95670
2023-04-27T10:51:15.826Z,95669
2023-04-27T10:52:24.530Z,95674
2023-04-27T10:53:34.236Z,95671
2023-04-27T10:54:43.938Z,95670
2023-04-27T10:55:52.613Z,95672
2023-04-27T10:57:01.347Z,95670
2023-04-27T10:58:10.043Z,95674
2023-04-27T10:59:17.736Z,95672
2023-04-27T11:00:28.430Z,95672
2023-04-27T11:01:38.132Z,95670
2023-04-27T11:02:47.894Z,95668
2023-04-27T11:03:57.542Z,95670
2023-04-27T11:05:06.247Z,95667
2023-04-27T11:06:15.960Z,95671
2023-04-27T11:07:24.662Z,95672
2023-04-27T11:08:34.391Z,95671
2023-04-27T11:09:44.116Z,95672
2023-04-27T11:10:52.796Z,95669
2023-04-27T11:12:02.477Z,95670
2023-04-27T11:13:12.156Z,95662
2023-04-27T11:14:19.841Z,95670
2023-04-27T11:15:28.500Z,95669
2023-04-27T11:16:38.261Z,95665
2023-04-27T11:17:48.878Z,95661
2023-04-27T11:18:59.731Z,95669
2023-04-27T11:20:08.299Z,95666
2023-04-27T11:21:17.046Z,95674
2023-04-27T11:22:26.745Z,95672
2023-04-27T11:23:34.418Z,95677
2023-04-27T11:24:44.092Z,95672
2023-04-27T11:25:53.799Z,95675
2023-04-27T11:27:03.566Z,95670
2023-04-27T11:28:13.336Z,95671
2023-04-27T11:29:23.053Z,95671
2023-04-27T11:30:31.738Z,95671
2023-04-27T11:31:41.409Z,95674
2023-04-27T11:32:50.315Z,95673
2023-04-27T11:33:59.033Z,95674
2023-04-27T11:35:06.787Z,95673
2023-04-27T11:36:15.522Z,95672
2023-04-27T11:37:25.303Z,95672
2023-04-27T11:38:34.005Z,95678
2023-04-27T11:39:42.602Z,95676
2023-04-27T11:40:52.313Z,95674
2023-04-27T11:42:02.020Z,95682
2023-04-27T11:43:10.737Z,95680
2023-04-27T11:44:20.408Z,95686
2023-04-27T11:45:30.100Z,95682
2023-04-27T11:46:39.802Z,95680
2023-04-27T11:47:47.523Z,95680
2023-04-27T11:48:56.260Z,95681
2023-04-27T11:50:06.935Z,95680
2023-04-27T11:51:14.773Z,95678
2023-04-27T11:52:23.546Z,95683
2023-04-27T11:53:32.326Z,95681
2023-04-27T11:54:40.995Z,95679
2023-04-27T11:55:50.739Z,95681
2023-04-27T11:56:58.462Z,95680
2023-04-27T11:58:06.166Z,95688
2023-04-27T11:59:15.879Z,95689
2023-04-27T12:00:23.575Z,95686
2023-04-27T12:01:37.944Z,95688
2023-04-27T12:02:43.169Z,95690
2023-04-27T12:03:50.756Z,95686
2023-04-27T12:05:01.782Z,95693
2023-04-27T12:06:21.939Z,95688
2023-04-27T12:07:19.771Z,95691
2023-04-27T12:08:29.437Z,95691
2023-04-27T12:09:37.167Z,95686
2023-04-27T12:10:46.847Z,95686
2023-04-27T12:11:55.596Z,95685
2023-04-27T12:13:05.289Z,95686
2023-04-27T12:14:15.342Z,95682
2023-04-27T12:15:22.682Z,95681
2023-04-27T12:16:32.364Z,95684
2023-04-27T12:17:42.120Z,95685
2023-04-27T12:18:50.783Z,95681
2023-04-27T12:20:00.452Z,95683
2023-04-27T12:21:10.161Z,95687
2023-04-27T12:22:19.819Z,95685
2023-04-27T12:23:29.485Z,95688
2023-04-27T12:24:37.296Z,95690
2023-04-27T12:25:45.963Z,95686
2023-04-27T12:26:55.621Z,95687
2023-04-27T12:28:05.345Z,95687
2023-04-27T12:29:15.164Z,95690
2023-04-27T12:30:24.851Z,95689
2023-04-27T12:31:34.595Z,95688
2023-04-27T12:32:44.252Z,95687
2023-04-27T12:33:51.892Z,95688
2023-04-27T12:35:01.588Z,95687
2023-04-27T12:36:11.280Z,95684
2023-04-27T12:37:20.899Z,95688
2023-04-27T12:38:30.609Z,95679
2023-04-27T12:39:40.356Z,95680
2023-04-27T12:40:48.020Z,95676
2023-04-27T12:41:57.670Z,95690
2023-04-27T12:43:07.326Z,95679
2023-04-27T12:44:16.218Z,95680
2023-04-27T12:45:25.731Z,95683
2023-04-27T12:46:34.377Z,95682
2023-04-27T12:47:58.613Z,95679
2023-04-27T12:48:53.689Z,95680
2023-04-27T12:50:01.398Z,95681
2023-04-27T12:51:10.153Z,95689
2023-04-27T12:52:19.960Z,95678
2023-04-27T12:53:28.491Z,95678
2023-04-27T12:54:38.242Z,95675
2023-04-27T12:55:46.921Z,95673
2023-04-27T12:56:56.583Z,95669
2023-04-27T12:58:06.260Z,95669
2023-04-27T12:59:14.957Z,95674
2023-04-27T13:00:23.605Z,95675
2023-04-27T13:01:33.411Z,95676
2023-04-27T13:02:42.243Z,95672
2023-04-27T13:03:51.764Z,95675
2023-04-27T13:05:01.532Z,95671
2023-04-27T13:06:10.176Z,95669
2023-04-27T13:07:19.986Z,95668
2023-04-27T13:08:27.765Z,95669
2023-04-27T13:09:37.528Z,95674
2023-04-27T13:10:46.284Z,95664
2023-04-27T13:11:53.935Z,95660
2023-04-27T13:13:03.587Z,95660
2023-04-27T13:14:12.468Z,95662
2023-04-27T13:15:21.130Z,95672
2023-04-27T13:16:30.922Z,95663
2023-04-27T13:17:40.255Z,95663
2023-04-27T13:18:48.282Z,95664
2023-04-27T13:19:58.012Z,95656
2023-04-27T13:21:05.766Z,95659
2023-04-27T13:22:14.482Z,95662
2023-04-27T13:23:23.161Z,95662
2023-04-27T13:24:32.941Z,95663
2023-04-27T13:25:42.662Z,95668
2023-04-27T13:26:51.392Z,95666
2023-04-27T13:28:00.113Z,95663
2023-04-27T13:29:09.803Z,95659
2023-04-27T13:30:18.499Z,95658
2023-04-27T13:31:28.210Z,95668
2023-04-27T13:32:36.924Z,95661
2023-04-27T13:33:46.539Z,95661
2023-04-27T13:34:56.397Z,95658
2023-04-27T13:36:05.063Z,95659
2023-04-27T13:37:14.797Z,95656
2023-04-27T13:38:24.561Z,95654
2023-04-27T13:39:33.274Z,95665
2023-04-27T13:40:43.016Z,95658
2023-04-27T13:41:52.748Z,95660
2023-04-27T13:43:01.451Z,95661
2023-04-27T13:44:11.196Z,95661
2023-04-27T13:45:18.907Z,95657
2023-04-27T13:46:27.613Z,95664
2023-04-27T13:47:37.435Z,95665
2023-04-27T13:48:45.013Z,95663
2023-04-27T13:49:53.772Z,95662
2023-04-27T13:51:02.537Z,95659
2023-04-27T13:52:11.186Z,95663
2023-04-27T13:53:20.876Z,95654
2023-04-27T13:54:29.525Z,95656
2023-04-27T13:55:38.201Z,95666
2023-04-27T13:56:47.950Z,95659
2023-04-27T13:57:56.642Z,95653
2023-04-27T13:59:05.360Z,95646
2023-04-27T14:00:15.098Z,95641
2023-04-27T14:01:23.872Z,95639
2023-04-27T14:02:33.529Z,95648
2023-04-27T14:03:43.442Z,95644
2023-04-27T14:04:49.911Z,95637
2023-04-27T14:05:59.778Z,95640
2023-04-27T14:07:08.496Z,95637
2023-04-27T14:08:17.200Z,95640
2023-04-27T14:09:26.833Z,95643
2023-04-27T14:10:35.532Z,95643
2023-04-27T14:11:55.478Z,95638
2023-04-27T14:12:54.909Z,95635
2023-04-27T14:14:03.551Z,95633
2023-04-27T14:15:13.253Z,95637
2023-04-27T14:16:20.960Z,95647
2023-04-27T14:17:29.593Z,95641
2023-04-27T14:18:38.242Z,95643
2023-04-27T14:19:46.934Z,95642
2023-04-27T14:20:56.647Z,95631
2023-04-27T14:22:05.316Z,95635
2023-04-27T14:23:13.948Z,95633
2023-04-27T14:24:23.604Z,95635
2023-04-27T14:25:32.352Z,95639
2023-04-27T14:26:41.057Z,95632
2023-04-27T14:27:49.709Z,95649
2023-04-27T14:28:58.782Z,95633
2023-04-27T14:30:08.104Z,95639
2023-04-27T14:31:16.763Z,95628
2023-04-27T14:32:26.474Z,95629
2023-04-27T14:33:36.098Z,95626
2023-04-27T14:34:44.790Z,95629
2023-04-27T14:35:54.543Z,95625
2023-04-27T14:37:04.262Z,95631
2023-04-27T14:38:13.927Z,95625
2023-04-27T14:39:22.626Z,95630
2023-04-27T14:40:32.422Z,95634
2023-04-27T14:41:41.094Z,95632
2023-04-27T14:42:49.747Z,95635
2023-04-27T14:43:59.416Z,95634
2023-04-27T14:45:09.164Z,95632
2023-04-27T14:46:21.084Z,95635
2023-04-27T14:47:27.624Z,95631
2023-04-27T14:48:37.250Z,95633
2023-04-27T14:49:46.954Z,95632